Time;durP1;ratioP1;P1;durP2;ratioP2;P2;SDS_P1;SDS_P2;PMS_P1;PMS_P2;Temp;Humidity;BMP_temperature;BMP_pressure;BME280_temperature;BME280_humidity;BME280_pressure;Samples;Min_cycle;Max_cycle;Signal;HPM_P1;HPM_P2
2023/01/13 00:01:40;;;;;;;14.38;6.38;;;;;;;;;;10392210;28;20469;-43
2023/01/13 00:06:41;;;;;;;10.32;6.20;;;;;;;;;;10409378;28;20030;-55
2023/01/13 00:11:42;;;;;;;13.32;6.60;;;;;;;;;;10400832;28;20240;-60
2023/01/13 00:16:42;;;;;;;11.73;6.45;;;;;;;;;;10392433;28;20048;-59
2023/01/13 00:21:43;;;;;;;10.77;6.10;;;;;;;;;;10377688;28;20519;-60
2023/01/13 00:26:43;;;;;;;9.95;5.97;;;;;;;;;;10369951;28;20030;-60
2023/01/13 00:31:44;;;;;;;8.55;5.80;;;;;;;;;;10376310;28;20040;-60
2023/01/13 00:36:44;;;;;;;9.50;5.75;;;;;;;;;;10382480;28;20045;-58
2023/01/13 00:47:07;;;;;;;10.77;6.20;;;;;;;;;;10374876;28;20489;-56
2023/01/13 00:52:08;;;;;;;13.55;6.18;;;;;;;;;;10394355;28;20130;-61
2023/01/13 00:57:09;;;;;;;8.10;5.68;;;;;;;;;;10400987;28;20033;-43
2023/01/13 01:02:09;;;;;;;8.48;5.53;;;;;;;;;;10399315;28;20029;-60
2023/01/13 01:07:10;;;;;;;7.78;5.40;;;;;;;;;;10414813;28;20558;-58
2023/01/13 01:12:10;;;;;;;9.23;5.90;;;;;;;;;;10405321;28;20033;-59
2023/01/13 01:17:11;;;;;;;11.35;5.95;;;;;;;;;;10408643;28;20042;-56
2023/01/13 01:22:11;;;;;;;8.05;5.38;;;;;;;;;;10412466;28;20033;-62
2023/01/13 01:27:12;;;;;;;14.60;5.70;;;;;;;;;;10413625;28;20021;-57
2023/01/13 01:32:12;;;;;;;9.77;5.95;;;;;;;;;;10414285;28;20036;-61
2023/01/13 01:37:13;;;;;;;12.65;6.13;;;;;;;;;;10413162;28;20026;-54
2023/01/13 01:47:36;;;;;;;9.75;5.93;;;;;;;;;;10412946;28;20057;-56
2023/01/13 01:52:42;;;;;;;10.23;5.65;;;;;;;;;;10412160;28;20049;-61
2023/01/13 01:57:56;;;;;;;6.05;5.03;;;;;;;;;;10413059;28;20037;-60
2023/01/13 02:02:59;;;;;;;11.38;5.85;;;;;;;;;;10400692;28;20033;-62
2023/01/13 02:08:01;;;;;;;8.35;5.53;;;;;;;;;;10412514;28;20538;-60
2023/01/13 02:13:07;;;;;;;10.40;5.43;;;;;;;;;;10412519;28;20025;-61
2023/01/13 02:18:49;;;;;;;8.63;5.43;;;;;;;;;;10406464;28;20203;-58
2023/01/13 02:35:53;;;;;;;9.40;5.80;;;;;;;;;;10406564;28;19921;-56
2023/01/13 02:46:33;;;;;;;10.52;5.05;;;;;;;;;;10410348;28;20026;-57
2023/01/13 02:51:35;;;;;;;6.60;4.53;;;;;;;;;;10409632;28;20120;-43
2023/01/13 02:56:40;;;;;;;6.68;4.68;;;;;;;;;;10400570;28;20021;-43
2023/01/13 03:01:41;;;;;;;8.10;5.72;;;;;;;;;;10409896;28;20033;-58
2023/01/13 03:06:53;;;;;;;9.60;4.95;;;;;;;;;;10410480;28;20014;-60
2023/01/13 03:12:22;;;;;;;8.85;5.25;;;;;;;;;;10408997;28;20030;-56
2023/01/13 03:17:40;;;;;;;;;;;;;;;;;;10407436;28;20045;-44
2023/01/13 03:23:15;;;;;;;9.00;5.37;;;;;;;;;;10397881;28;19913;-58
2023/01/13 03:28:26;;;;;;;7.32;5.30;;;;;;;;;;10393563;28;20038;-58
2023/01/13 03:33:37;;;;;;;8.55;5.20;;;;;;;;;;10408410;28;20140;-58
2023/01/13 03:38:43;;;;;;;6.97;5.00;;;;;;;;;;10410009;28;20030;-52
2023/01/13 03:44:33;;;;;;;7.38;4.97;;;;;;;;;;10400721;28;20370;-58
2023/01/13 03:50:13;;;;;;;6.93;4.75;;;;;;;;;;10407513;28;20057;-60
2023/01/13 03:55:18;;;;;;;7.32;4.88;;;;;;;;;;10396653;28;20052;-61
2023/01/13 04:00:24;;;;;;;7.30;5.00;;;;;;;;;;10407704;28;20045;-43
2023/01/13 04:05:26;;;;;;;8.90;5.13;;;;;;;;;;10408794;28;20022;-44
2023/01/13 04:11:08;;;;;;;6.93;4.75;;;;;;;;;;10408499;28;20473;-45
2023/01/13 04:16:10;;;;;;;7.72;5.05;;;;;;;;;;10406918;28;20101;-44
2023/01/13 04:21:11;;;;;;;7.07;4.70;;;;;;;;;;10407134;28;20079;-47
2023/01/13 04:26:11;;;;;;;6.82;5.05;;;;;;;;;;10404688;28;20025;-45
2023/01/13 04:31:12;;;;;;;6.80;5.07;;;;;;;;;;10399271;28;20021;-45
2023/01/13 04:36:12;;;;;;;7.90;5.47;;;;;;;;;;10408516;28;20021;-44
2023/01/13 04:41:13;;;;;;;6.95;4.45;;;;;;;;;;10407773;28;20022;-51
2023/01/13 04:46:14;;;;;;;6.88;4.40;;;;;;;;;;10407753;28;20033;-43
2023/01/13 04:51:14;;;;;;;5.00;4.28;;;;;;;;;;10407190;28;20038;-44
2023/01/13 04:56:15;;;;;;;6.32;4.78;;;;;;;;;;10406663;28;20025;-44
2023/01/13 05:01:15;;;;;;;7.18;4.60;;;;;;;;;;10406941;28;20029;-58
2023/01/13 05:06:16;;;;;;;8.80;4.90;;;;;;;;;;10407142;28;20029;-58
2023/01/13 05:27:15;;;;;;;9.65;4.43;;;;;;;;;;10395918;28;20057;-59
2023/01/13 05:32:16;;;;;;;6.18;4.03;;;;;;;;;;10405888;28;20030;-61
2023/01/13 05:37:16;;;;;;;5.72;4.25;;;;;;;;;;10409564;28;20053;-44
2023/01/13 05:47:36;;;;;;;5.47;4.38;;;;;;;;;;10393655;28;20037;-47
2023/01/13 05:52:37;;;;;;;4.90;4.10;;;;;;;;;;10390919;28;20045;-50
2023/01/13 05:57:37;;;;;;;5.70;4.43;;;;;;;;;;10384595;28;20045;-45
2023/01/13 06:02:38;;;;;;;5.03;4.10;;;;;;;;;;10379400;28;20030;-44
2023/01/13 06:07:38;;;;;;;6.57;4.50;;;;;;;;;;10390055;28;20025;-45
2023/01/13 06:12:39;;;;;;;6.47;4.47;;;;;;;;;;10390133;28;20029;-46
2023/01/13 06:17:40;;;;;;;6.00;4.03;;;;;;;;;;10388009;28;20049;-44
2023/01/13 06:22:45;;;;;;;4.90;4.00;;;;;;;;;;10382257;28;20034;-45
2023/01/13 06:27:52;;;;;;;6.18;4.78;;;;;;;;;;10378683;28;20026;-46
2023/01/13 06:32:56;;;;;;;10.55;6.07;;;;;;;;;;10378226;28;20022;-55
2023/01/13 06:37:59;;;;;;;13.48;6.85;;;;;;;;;;10394928;28;20036;-46
2023/01/13 06:43:16;;;;;;;13.77;7.53;;;;;;;;;;10389007;28;20032;-47
2023/01/13 06:48:20;;;;;;;13.38;7.07;;;;;;;;;;10408030;28;20029;-52
2023/01/13 06:53:21;;;;;;;12.35;8.00;;;;;;;;;;10405185;28;20519;-49
2023/01/13 06:58:21;;;;;;;21.15;7.65;;;;;;;;;;10378986;28;20029;-57
2023/01/13 07:03:22;;;;;;;15.27;7.25;;;;;;;;;;10379708;28;20029;-58
2023/01/13 07:08:23;;;;;;;16.17;7.55;;;;;;;;;;10386181;28;20037;-56
2023/01/13 07:18:43;;;;;;;16.63;7.35;;;;;;;;;;10386782;28;20034;-57
2023/01/13 07:23:45;;;;;;;16.75;8.45;;;;;;;;;;10392918;28;20401;-57
2023/01/13 07:28:45;;;;;;;15.55;7.43;;;;;;;;;;10391801;28;20031;-56
2023/01/13 07:33:47;;;;;;;16.48;7.07;;;;;;;;;;10409178;28;20370;-56
2023/01/13 07:38:47;;;;;;;15.02;7.35;;;;;;;;;;10408379;28;20037;-54
2023/01/13 07:43:48;;;;;;;13.80;8.13;;;;;;;;;;10409210;28;20022;-56
2023/01/13 07:48:48;;;;;;;11.68;7.15;;;;;;;;;;10408993;28;20033;-58
2023/01/13 07:53:49;;;;;;;15.88;7.38;;;;;;;;;;10409128;28;20034;-55
2023/01/13 07:58:51;;;;;;;10.75;7.28;;;;;;;;;;10408209;28;20029;-56
2023/01/13 08:03:53;;;;;;;14.43;6.85;;;;;;;;;;10408687;28;20037;-56
2023/01/13 08:08:54;;;;;;;17.13;8.00;;;;;;;;;;10408151;28;20048;-58
2023/01/13 08:13:56;;;;;;;10.73;7.05;;;;;;;;;;10407955;28;20115;-57
2023/01/13 08:18:57;;;;;;;10.15;6.35;;;;;;;;;;10406604;28;20398;-57
2023/01/13 08:23:58;;;;;;;12.25;6.90;;;;;;;;;;10407615;28;20018;-53
2023/01/13 08:28:58;;;;;;;13.23;7.00;;;;;;;;;;10396322;28;20037;-57
2023/01/13 08:33:59;;;;;;;9.38;6.55;;;;;;;;;;10407533;28;20029;-57
2023/01/13 08:38:59;;;;;;;9.13;6.90;;;;;;;;;;10407335;28;20029;-57
2023/01/13 08:44:00;;;;;;;9.38;7.25;;;;;;;;;;10407682;28;20021;-56
2023/01/13 08:49:01;;;;;;;8.75;6.32;;;;;;;;;;10407068;28;20465;-49
2023/01/13 08:54:02;;;;;;;10.00;6.80;;;;;;;;;;10406925;28;20045;-56
2023/01/13 08:59:02;;;;;;;8.88;6.88;;;;;;;;;;10407228;28;20090;-55
2023/01/13 09:04:04;;;;;;;11.35;7.03;;;;;;;;;;10404889;28;20033;-56
2023/01/13 09:09:05;;;;;;;10.98;6.60;;;;;;;;;;10406735;28;20082;-56
2023/01/13 09:14:05;;;;;;;10.73;6.28;;;;;;;;;;10412542;28;20347;-54
2023/01/13 09:19:06;;;;;;;12.23;7.10;;;;;;;;;;10414966;28;20041;-55
2023/01/13 09:24:07;;;;;;;10.65;6.93;;;;;;;;;;10413936;28;20021;-54
2023/01/13 09:29:08;;;;;;;12.35;6.72;;;;;;;;;;10402927;28;20051;-45
2023/01/13 09:39:37;;;;;;;10.68;6.30;;;;;;;;;;10415334;28;20029;-54
2023/01/13 09:44:57;;;;;;;10.50;6.78;;;;;;;;;;10413155;28;20034;-57
2023/01/13 09:50:13;;;;;;;8.85;6.00;;;;;;;;;;10412085;28;20053;-51
2023/01/13 09:55:30;;;;;;;10.90;6.50;;;;;;;;;;10402441;28;20045;-57
2023/01/13 10:00:57;;;;;;;10.05;6.43;;;;;;;;;;10412860;28;20392;-55
2023/01/13 10:06:17;;;;;;;8.13;6.10;;;;;;;;;;10410533;28;20416;-56
2023/01/13 10:16:56;;;;;;;9.02;6.47;;;;;;;;;;10412742;28;20033;-57
2023/01/13 10:21:59;;;;;;;10.07;6.32;;;;;;;;;;10411115;28;20033;-56
2023/01/13 10:27:11;;;;;;;8.60;5.88;;;;;;;;;;10402931;28;20025;-47
2023/01/13 10:32:11;;;;;;;9.27;6.60;;;;;;;;;;10410752;28;20022;-45
2023/01/13 10:37:25;;;;;;;13.60;6.57;;;;;;;;;;10411514;28;20040;-46
2023/01/13 10:42:25;;;;;;;9.70;6.00;;;;;;;;;;10411530;28;20469;-50
2023/01/13 10:47:33;;;;;;;9.77;6.32;;;;;;;;;;10411130;28;20022;-47
2023/01/13 10:52:42;;;;;;;7.82;6.00;;;;;;;;;;10411074;28;20038;-57
2023/01/13 10:57:42;;;;;;;10.18;6.75;;;;;;;;;;10408524;28;20480;-54
2023/01/13 11:02:43;;;;;;;10.60;5.70;;;;;;;;;;10410312;28;20029;-57
2023/01/13 11:07:51;;;;;;;8.23;6.05;;;;;;;;;;10409193;28;20017;-54
2023/01/13 11:13:20;;;;;;;7.68;5.60;;;;;;;;;;10403378;28;20108;-57
2023/01/13 11:19:10;;;;;;;9.57;6.30;;;;;;;;;;10409136;28;20025;-55
2023/01/13 11:24:37;;;;;;;7.55;5.60;;;;;;;;;;10396385;28;20094;-54
2023/01/13 11:30:10;;;;;;;9.73;5.80;;;;;;;;;;10408156;28;20040;-56
2023/01/13 11:35:17;;;;;;;10.07;6.18;;;;;;;;;;10398952;28;20382;-57
2023/01/13 11:40:39;;;;;;;11.93;6.18;;;;;;;;;;10407535;28;20428;-57
2023/01/13 11:45:52;;;;;;;14.43;6.57;;;;;;;;;;10407901;28;20032;-55
2023/01/13 11:51:02;;;;;;;8.88;6.18;;;;;;;;;;10407327;28;20032;-56
2023/01/13 11:56:55;;;;;;;8.98;6.25;;;;;;;;;;10408362;28;20060;-57
2023/01/13 12:02:29;;;;;;;9.75;5.28;;;;;;;;;;10398624;28;20026;-57
2023/01/13 12:07:32;;;;;;;6.90;5.65;;;;;;;;;;10408022;28;20032;-48
2023/01/13 12:13:02;;;;;;;8.15;6.05;;;;;;;;;;10407650;28;20025;-51
2023/01/13 12:18:40;;;;;;;8.10;6.32;;;;;;;;;;10407020;28;20036;-44
2023/01/13 12:24:17;;;;;;;8.10;5.70;;;;;;;;;;10407526;28;20439;-54
2023/01/13 12:29:21;;;;;;;9.55;6.25;;;;;;;;;;10396299;28;20061;-45
2023/01/13 12:34:36;;;;;;;7.20;5.60;;;;;;;;;;10407341;28;20026;-48
2023/01/13 12:40:12;;;;;;;9.48;5.68;;;;;;;;;;10400760;28;20037;-48
2023/01/13 12:45:13;;;;;;;10.07;5.75;;;;;;;;;;10406072;28;20094;-46
2023/01/13 12:50:22;;;;;;;6.72;5.43;;;;;;;;;;10391563;28;20026;-54
2023/01/13 12:55:27;;;;;;;8.75;6.40;;;;;;;;;;10405543;28;20050;-56
2023/01/13 13:00:58;;;;;;;7.70;6.22;;;;;;;;;;10415004;28;20023;-57
2023/01/13 13:06:22;;;;;;;8.77;6.13;;;;;;;;;;10411059;28;20038;-54
2023/01/13 13:17:28;;;;;;;7.70;5.93;;;;;;;;;;10398210;28;20132;-53
2023/01/13 13:22:43;;;;;;;8.95;6.25;;;;;;;;;;10394882;28;20040;-48
2023/01/13 13:28:15;;;;;;;7.63;6.05;;;;;;;;;;10387257;28;20021;-48
2023/01/13 13:33:56;;;;;;;10.30;6.80;;;;;;;;;;10405922;28;20036;-55
2023/01/13 13:50:20;;;;;;;10.13;5.65;;;;;;;;;;10406955;28;20022;-55
2023/01/13 13:55:25;;;;;;;7.45;6.13;;;;;;;;;;10384454;28;20112;-55
2023/01/13 14:00:37;;;;;;;7.05;5.30;;;;;;;;;;10400254;28;20025;-57
2023/01/13 14:05:37;;;;;;;8.38;6.05;;;;;;;;;;10381928;28;20041;-54
2023/01/13 14:10:41;;;;;;;9.82;6.53;;;;;;;;;;10395286;28;20021;-55
2023/01/13 14:15:44;;;;;;;9.10;6.20;;;;;;;;;;10381988;28;20148;-53
2023/01/13 14:20:58;;;;;;;7.45;6.55;;;;;;;;;;10384770;28;20032;-57
2023/01/13 14:26:17;;;;;;;8.50;7.05;;;;;;;;;;10379794;28;20076;-56
2023/01/13 14:31:17;;;;;;;;;;;;;;;;;;10380069;28;20205;-57
2023/01/13 14:36:31;;;;;;;9.70;6.75;;;;;;;;;;10385038;28;20064;-48
2023/01/13 14:41:42;;;;;;;9.38;6.68;;;;;;;;;;10375403;28;20025;-44
2023/01/13 14:46:44;;;;;;;8.55;6.03;;;;;;;;;;10392829;28;20022;-44
2023/01/13 14:51:45;;;;;;;7.97;6.53;;;;;;;;;;10399025;28;20034;-57
2023/01/13 14:56:52;;;;;;;8.30;5.88;;;;;;;;;;10393330;28;20037;-54
2023/01/13 15:01:53;;;;;;;9.38;6.20;;;;;;;;;;10374576;28;20037;-56
2023/01/13 15:06:56;;;;;;;7.93;6.18;;;;;;;;;;10375362;28;20022;-55
2023/01/13 15:12:15;;;;;;;9.88;6.43;;;;;;;;;;10380219;28;20116;-53
2023/01/13 15:17:17;;;;;;;9.85;6.18;;;;;;;;;;10383453;28;20029;-55
2023/01/13 15:22:17;;;;;;;7.82;6.15;;;;;;;;;;10389022;28;20119;-47
2023/01/13 15:27:24;;;;;;;7.05;5.93;;;;;;;;;;10395528;28;20528;-47
2023/01/13 15:32:24;;;;;;;8.68;5.97;;;;;;;;;;10401307;28;20038;-48
2023/01/13 15:37:25;;;;;;;7.18;5.80;;;;;;;;;;10379440;28;20022;-56
2023/01/13 15:47:45;;;;;;;14.32;6.13;;;;;;;;;;10398688;28;20033;-53
2023/01/13 15:52:45;;;;;;;8.95;5.97;;;;;;;;;;10374131;28;20042;-49
2023/01/13 15:57:49;;;;;;;10.38;6.53;;;;;;;;;;10370286;28;20046;-52
2023/01/13 16:02:50;;;;;;;8.88;5.75;;;;;;;;;;10377001;28;20416;-46
2023/01/13 16:07:51;;;;;;;9.18;5.95;;;;;;;;;;10379496;28;20033;-51
2023/01/13 16:12:54;;;;;;;10.13;5.78;;;;;;;;;;10390128;28;20038;-53
2023/01/13 16:17:58;;;;;;;7.53;5.72;;;;;;;;;;10396381;28;20033;-51
2023/01/13 16:22:59;;;;;;;9.25;6.10;;;;;;;;;;10378917;28;20029;-54
2023/01/13 16:27:59;;;;;;;9.52;5.82;;;;;;;;;;10387495;28;20071;-49
2023/01/13 16:33:01;;;;;;;8.63;5.63;;;;;;;;;;10408057;28;20041;-50
2023/01/13 16:38:02;;;;;;;10.40;5.55;;;;;;;;;;10407507;28;20310;-48
2023/01/13 16:43:05;;;;;;;8.05;5.63;;;;;;;;;;10407407;28;20032;-54
2023/01/13 16:48:16;;;;;;;9.52;5.68;;;;;;;;;;10398013;28;20087;-57
2023/01/13 16:53:16;;;;;;;7.90;5.45;;;;;;;;;;10406453;28;20108;-49
2023/01/13 16:58:19;;;;;;;9.15;5.63;;;;;;;;;;10407415;28;20121;-57
2023/01/13 17:03:19;;;;;;;10.05;5.60;;;;;;;;;;10406938;28;20109;-56
2023/01/13 17:08:20;;;;;;;7.10;5.22;;;;;;;;;;10407001;28;20028;-58
2023/01/13 17:13:21;;;;;;;8.35;5.18;;;;;;;;;;10406585;28;20087;-56
2023/01/13 17:18:21;;;;;;;9.48;6.25;;;;;;;;;;10406530;28;20030;-55
2023/01/13 17:23:22;;;;;;;8.25;5.38;;;;;;;;;;10406876;28;20025;-54
2023/01/13 17:28:22;;;;;;;7.13;5.50;;;;;;;;;;10395116;28;20030;-56
2023/01/13 17:33:23;;;;;;;8.75;5.70;;;;;;;;;;10410304;28;20022;-54
2023/01/13 17:38:23;;;;;;;8.82;6.40;;;;;;;;;;10414058;28;20037;-49
2023/01/13 17:43:25;;;;;;;6.97;5.35;;;;;;;;;;10414624;28;20032;-55
2023/01/13 17:48:26;;;;;;;7.40;5.43;;;;;;;;;;10403453;28;20040;-56
2023/01/13 17:53:27;;;;;;;7.03;5.53;;;;;;;;;;10402023;28;20041;-55
2023/01/13 17:58:28;;;;;;;8.40;6.22;;;;;;;;;;10390096;28;20072;-58
2023/01/13 18:03:28;;;;;;;13.27;6.25;;;;;;;;;;10386573;28;20029;-55
2023/01/13 18:08:29;;;;;;;8.82;5.68;;;;;;;;;;10379089;28;20022;-57
2023/01/13 18:13:31;;;;;;;8.80;5.93;;;;;;;;;;10386152;28;20038;-56
2023/01/13 18:18:33;;;;;;;7.03;5.80;;;;;;;;;;10379832;28;20041;-56
2023/01/13 18:28:52;;;;;;;8.98;6.10;;;;;;;;;;10385560;28;20256;-54
2023/01/13 18:33:53;;;;;;;7.43;5.57;;;;;;;;;;10378982;28;20256;-45
2023/01/13 18:38:54;;;;;;;12.57;6.47;;;;;;;;;;10386739;28;20037;-44
2023/01/13 18:43:54;;;;;;;8.60;5.50;;;;;;;;;;10398711;28;20029;-55
2023/01/13 18:48:55;;;;;;;7.03;5.80;;;;;;;;;;10404179;28;20026;-57
2023/01/13 18:53:55;;;;;;;6.45;5.68;;;;;;;;;;10392759;28;20042;-55
2023/01/13 18:58:56;;;;;;;8.95;6.22;;;;;;;;;;10376443;28;20033;-56
2023/01/13 19:04:01;;;;;;;10.13;5.57;;;;;;;;;;10380597;28;20025;-57
2023/01/13 19:09:07;;;;;;;8.25;5.40;;;;;;;;;;10388093;28;20056;-54
2023/01/13 19:14:08;;;;;;;8.15;6.20;;;;;;;;;;10384553;28;20030;-53
2023/01/13 19:19:09;;;;;;;13.63;6.97;;;;;;;;;;10392664;28;20037;-57
2023/01/13 19:24:10;;;;;;;15.75;8.68;;;;;;;;;;10399543;28;20029;-50
2023/01/13 19:29:10;;;;;;;13.73;8.63;;;;;;;;;;10396150;28;20033;-57
2023/01/13 19:34:11;;;;;;;12.68;8.57;;;;;;;;;;10381877;28;20029;-57
2023/01/13 19:39:12;;;;;;;14.95;9.02;;;;;;;;;;10388164;28;20037;-52
2023/01/13 19:49:32;;;;;;;14.15;8.13;;;;;;;;;;10398871;28;20061;-50
2023/01/13 19:54:33;;;;;;;14.48;8.88;;;;;;;;;;10400466;28;20045;-57
2023/01/13 19:59:34;;;;;;;14.63;9.48;;;;;;;;;;10384393;28;20053;-55
2023/01/13 20:04:37;;;;;;;10.88;8.60;;;;;;;;;;10378752;28;20048;-54
2023/01/13 20:09:41;;;;;;;14.25;8.43;;;;;;;;;;10375342;28;20128;-57
2023/01/13 20:14:46;;;;;;;15.07;8.85;;;;;;;;;;10385708;28;20057;-47
2023/01/13 20:19:47;;;;;;;13.32;9.60;;;;;;;;;;10394251;28;20463;-55
2023/01/13 20:24:53;;;;;;;12.35;8.32;;;;;;;;;;10387415;28;20154;-57
2023/01/13 20:29:54;;;;;;;12.25;8.68;;;;;;;;;;10385118;28;20033;-58
2023/01/13 20:34:54;;;;;;;13.10;9.13;;;;;;;;;;10384172;28;20056;-48
2023/01/13 20:39:56;;;;;;;15.00;9.43;;;;;;;;;;10386458;28;20048;-44
2023/01/13 20:44:59;;;;;;;14.07;9.52;;;;;;;;;;10386776;28;20481;-58
2023/01/13 20:49:59;;;;;;;14.70;9.32;;;;;;;;;;10376359;28;20104;-47
2023/01/13 20:55:00;;;;;;;14.88;9.75;;;;;;;;;;10363313;28;20049;-49
2023/01/13 21:00:02;;;;;;;15.63;10.10;;;;;;;;;;10374598;28;20056;-54
2023/01/13 21:05:04;;;;;;;19.02;10.07;;;;;;;;;;10387539;28;20249;-55
2023/01/13 21:10:05;;;;;;;15.60;11.10;;;;;;;;;;10391455;28;20163;-57
2023/01/13 21:15:18;;;;;;;18.05;10.88;;;;;;;;;;10392624;28;21258;-56
2023/01/13 21:20:19;;;;;;;16.17;10.15;;;;;;;;;;10387702;28;20397;-56
2023/01/13 21:25:22;;;;;;;14.98;10.18;;;;;;;;;;10395029;28;20025;-55
2023/01/13 21:30:23;;;;;;;17.38;11.23;;;;;;;;;;10411076;28;20034;-56
2023/01/13 21:35:23;;;;;;;15.00;10.65;;;;;;;;;;10395449;28;20051;-53
2023/01/13 21:40:24;;;;;;;16.63;10.63;;;;;;;;;;10393815;28;20465;-54
2023/01/13 21:50:44;;;;;;;;;;;;;;;;;;10395954;28;20377;-54
2023/01/13 21:55:51;;;;;;;20.33;12.27;;;;;;;;;;10412397;28;20055;-44
2023/01/13 22:00:52;;;;;;;15.95;11.50;;;;;;;;;;10403719;28;20034;-46
2023/01/13 22:05:54;;;;;;;16.30;11.52;;;;;;;;;;10387615;28;20033;-46
2023/01/13 22:10:58;;;;;;;21.70;11.93;;;;;;;;;;10390023;28;20037;-50
2023/01/13 22:16:03;;;;;;;22.05;12.57;;;;;;;;;;10408482;28;20037;-45
2023/01/13 22:21:04;;;;;;;23.13;10.52;;;;;;;;;;10411250;28;20040;-46
2023/01/13 22:26:07;;;;;;;23.92;12.07;;;;;;;;;;10393283;28;20041;-51
2023/01/13 22:31:13;;;;;;;24.83;11.98;;;;;;;;;;10382836;28;20021;-48
2023/01/13 22:36:14;;;;;;;32.20;12.40;;;;;;;;;;10391340;28;20126;-50
2023/01/13 22:41:15;;;;;;;19.58;10.85;;;;;;;;;;10395237;28;20018;-55
2023/01/13 22:46:16;;;;;;;27.02;11.13;;;;;;;;;;10381650;28;20500;-57
2023/01/13 22:51:17;;;;;;;17.95;11.55;;;;;;;;;;10375921;28;20042;-50
2023/01/13 22:56:21;;;;;;;16.98;11.38;;;;;;;;;;10379476;28;20396;-57
2023/01/13 23:01:23;;;;;;;17.33;11.05;;;;;;;;;;10377559;28;20207;-54
2023/01/13 23:06:26;;;;;;;16.83;10.25;;;;;;;;;;10379068;28;20521;-57
2023/01/13 23:11:28;;;;;;;18.83;11.38;;;;;;;;;;10389480;28;20481;-57
2023/01/13 23:16:31;;;;;;;19.83;11.70;;;;;;;;;;10394415;28;20026;-57
2023/01/13 23:21:36;;;;;;;16.20;10.70;;;;;;;;;;10386307;28;20044;-56
2023/01/13 23:26:36;;;;;;;18.20;10.73;;;;;;;;;;10380898;28;20507;-56
2023/01/13 23:31:37;;;;;;;16.15;10.20;;;;;;;;;;10402578;28;20036;-54
2023/01/13 23:36:40;;;;;;;19.63;11.05;;;;;;;;;;10414781;28;20475;-47
2023/01/13 23:41:41;;;;;;;18.33;11.05;;;;;;;;;;10417423;28;20036;-49
2023/01/13 23:46:41;;;;;;;17.77;10.02;;;;;;;;;;10414479;28;20093;-47
2023/01/13 23:51:42;;;;;;;15.23;10.88;;;;;;;;;;10409253;28;20045;-54
2023/01/13 23:56:42;;;;;;;17.02;11.23;;;;;;;;;;10404841;28;20033;-44
